createdAt,value
2018-06-01T00:04:38.234Z,8.79
2018-06-01T00:10:33.204Z,8.08
2018-06-01T00:16:28.277Z,8.83
2018-06-01T00:22:23.255Z,8.47
2018-06-01T00:28:18.243Z,7.41
2018-06-01T00:34:13.304Z,7.75
2018-06-01T00:40:08.240Z,8.13
2018-06-01T00:46:03.227Z,9.53
2018-06-01T00:51:58.231Z,9.89
2018-06-01T00:57:53.260Z,8.87
2018-06-01T01:03:48.338Z,10.23
2018-06-01T01:09:43.246Z,6.91
2018-06-01T01:15:38.249Z,8.71
2018-06-01T01:21:33.287Z,8
2018-06-01T01:27:28.272Z,7.89
2018-06-01T01:33:23.304Z,8.45
2018-06-01T01:39:18.255Z,8.16
2018-06-01T01:45:13.324Z,7.76
2018-06-01T01:51:08.300Z,8.23
2018-06-01T01:57:03.337Z,9.79
2018-06-01T02:02:58.297Z,9.6
2018-06-01T02:08:53.316Z,7.79
2018-06-01T02:14:48.299Z,8.58
2018-06-01T02:20:43.326Z,8.17
2018-06-01T02:26:38.287Z,8.54
2018-06-01T02:32:33.330Z,8.03
2018-06-01T02:38:28.292Z,9.34
2018-06-01T02:44:23.315Z,7.6
2018-06-01T02:50:18.305Z,7.91
2018-06-01T02:56:13.346Z,9.81
2018-06-01T03:02:08.318Z,8.59
2018-06-01T03:08:03.307Z,8.87
2018-06-01T03:13:58.305Z,11.09
2018-06-01T03:19:53.336Z,9.87
2018-06-01T03:25:48.325Z,8.94
2018-06-01T03:31:43.380Z,8.9
2018-06-01T03:37:38.349Z,7.71
2018-06-01T03:43:33.341Z,8.83
2018-06-01T03:49:28.374Z,10.32
2018-06-01T03:55:23.343Z,9.81
2018-06-01T04:01:18.407Z,11.83
2018-06-01T04:07:13.425Z,10.79
2018-06-01T04:13:08.364Z,10.45
2018-06-01T04:19:03.352Z,10.72
2018-06-01T04:24:58.379Z,9.26
2018-06-01T04:30:53.378Z,8.85
2018-06-01T04:36:48.360Z,9.89
2018-06-01T04:42:43.394Z,9.14
2018-06-01T04:48:38.390Z,9.77
2018-06-01T04:54:33.350Z,12.8
2018-06-01T05:00:28.380Z,11.33
2018-06-01T05:06:23.420Z,12.32
2018-06-01T05:12:18.385Z,10.08
2018-06-01T05:18:13.417Z,9.74
2018-06-01T05:24:08.410Z,9.8
2018-06-01T05:30:03.815Z,11.56
2018-06-01T05:35:58.416Z,10
2018-06-01T05:41:53.383Z,10.25
2018-06-01T05:47:48.437Z,12.29
2018-06-01T05:53:43.408Z,10.95
2018-06-01T05:59:38.421Z,10.33
2018-06-01T06:05:33.415Z,10.65
2018-06-01T06:11:28.437Z,11.97
2018-06-01T06:17:23.517Z,10.1
2018-06-01T06:23:18.412Z,11.46
2018-06-01T06:29:13.443Z,11.38
2018-06-01T06:35:08.453Z,11.11
2018-06-01T06:41:03.521Z,13.63
2018-06-01T06:46:58.408Z,9.38
2018-06-01T06:52:53.471Z,9.35
2018-06-01T06:58:48.522Z,8.74
2018-06-01T07:04:43.443Z,12.03
2018-06-01T07:10:38.506Z,9.53
2018-06-01T07:16:33.486Z,9.49
2018-06-01T07:22:28.544Z,8.35
2018-06-01T07:28:23.503Z,8.58
2018-06-01T07:34:18.515Z,10.26
2018-06-01T07:40:13.491Z,9.92
2018-06-01T07:46:08.462Z,9.8
2018-06-01T07:52:03.474Z,9.93
2018-06-01T07:57:58.466Z,9.07
2018-06-01T08:03:53.525Z,8.06
2018-06-01T08:09:48.592Z,8.91
2018-06-01T08:15:43.483Z,7.3
2018-06-01T08:21:38.559Z,11.03
2018-06-01T08:27:33.494Z,9.22
2018-06-01T08:33:28.511Z,8.7
2018-06-01T08:39:23.563Z,8.13
2018-06-01T08:45:18.499Z,8.72
2018-06-01T08:51:13.547Z,10.53
2018-06-01T08:57:08.539Z,10.03
2018-06-01T09:03:03.496Z,7.75
2018-06-01T09:08:58.561Z,8.49
2018-06-01T09:14:53.503Z,9.62
2018-06-01T09:20:48.555Z,8.52
2018-06-01T09:26:43.570Z,8.57
2018-06-01T09:32:38.512Z,10.89
2018-06-01T09:38:33.553Z,10.52
2018-06-01T09:44:28.544Z,6.75
2018-06-01T09:50:23.551Z,6.73
2018-06-01T09:56:18.545Z,7.91
2018-06-01T10:02:13.539Z,7.54
2018-06-01T10:08:08.540Z,7.64
2018-06-01T10:14:03.544Z,6.99
2018-06-01T10:19:58.541Z,8.16
2018-06-01T10:25:53.575Z,6.27
2018-06-01T10:31:48.549Z,7.36
2018-06-01T10:37:43.565Z,7.12
2018-06-01T10:43:38.571Z,5.92
2018-06-01T10:49:33.601Z,7.73
2018-06-01T10:55:28.576Z,6.52
2018-06-01T11:01:23.563Z,6.96
2018-06-01T11:07:18.578Z,9.51
2018-06-01T11:13:13.586Z,7.01
2018-06-01T11:19:08.583Z,7.5
2018-06-01T11:25:03.579Z,7.8
2018-06-01T11:30:58.591Z,7.85
2018-06-01T11:36:53.597Z,6.51
2018-06-01T11:42:48.606Z,6.59
2018-06-01T11:48:43.609Z,6.2
2018-06-01T11:54:38.614Z,6.19
2018-06-01T12:00:33.612Z,7.5
2018-06-01T12:06:28.674Z,6.23
2018-06-01T12:12:23.660Z,6.68
2018-06-01T12:18:18.597Z,7.96
2018-06-01T12:24:13.625Z,6.02
2018-06-01T12:30:08.639Z,6.93
2018-06-01T12:36:03.628Z,6.89
2018-06-01T12:41:58.622Z,7.38
2018-06-01T12:47:53.641Z,6.53
2018-06-01T12:53:48.719Z,5.58
2018-06-01T12:59:43.705Z,6.18
2018-06-01T13:05:38.640Z,7.16
2018-06-01T13:11:33.649Z,5.45
2018-06-01T13:17:28.657Z,6.88
2018-06-01T13:23:23.640Z,5.59
2018-06-01T13:29:18.645Z,6.57
2018-06-01T13:35:13.713Z,7.46
2018-06-01T13:41:08.690Z,4.83
2018-06-01T13:47:03.704Z,6.65
2018-06-01T13:52:58.734Z,5.03
2018-06-01T13:58:53.772Z,5.8
2018-06-01T14:04:48.987Z,5.93
2018-06-01T14:10:43.735Z,5.7
2018-06-01T14:16:38.700Z,10.7
2018-06-01T14:22:33.764Z,5.97
2018-06-01T14:28:28.751Z,6.07
2018-06-01T14:34:23.724Z,5.33
2018-06-01T14:40:18.820Z,5.78
2018-06-01T14:46:13.785Z,5.27
2018-06-01T14:52:08.727Z,7.48
2018-06-01T14:58:03.754Z,7.93
2018-06-01T15:03:58.724Z,5.3
2018-06-01T15:09:53.705Z,4.65
2018-06-01T15:15:48.699Z,5.79
2018-06-01T15:21:43.721Z,5.6
2018-06-01T15:27:38.732Z,5.99
2018-06-01T15:33:33.741Z,6.35
2018-06-01T15:39:28.719Z,5.17
2018-06-01T15:45:23.756Z,6.14
2018-06-01T15:51:18.748Z,4.78
2018-06-01T15:57:13.748Z,5.92
2018-06-01T16:03:08.739Z,5.57
2018-06-01T16:09:03.801Z,6.7
2018-06-01T16:14:58.765Z,5.91
2018-06-01T16:20:53.797Z,4.43
2018-06-01T16:26:48.768Z,5.25
2018-06-01T16:32:43.795Z,4.75
2018-06-01T16:38:38.767Z,5.07
2018-06-01T16:44:33.785Z,5.81
2018-06-01T16:50:28.789Z,6.49
2018-06-01T16:56:23.819Z,4.73
2018-06-01T17:02:18.789Z,4.87
2018-06-01T17:08:13.780Z,4.73
2018-06-01T17:14:08.817Z,4.58
2018-06-01T17:20:03.793Z,5.87
2018-06-01T17:25:58.823Z,4.98
2018-06-01T17:31:53.775Z,7.36
2018-06-01T17:37:48.781Z,5.28
2018-06-01T17:43:43.820Z,8.18
2018-06-01T17:49:38.807Z,5.65
2018-06-01T17:55:33.833Z,5.27
2018-06-01T18:01:28.850Z,5.9
2018-06-01T18:07:23.889Z,5.87
2018-06-01T18:13:18.847Z,5.55
2018-06-01T18:19:13.911Z,4.98
2018-06-01T18:25:08.813Z,6.77
2018-06-01T18:31:03.838Z,6.56
2018-06-01T18:36:58.828Z,8.46
2018-06-01T18:42:53.837Z,7.02
2018-06-01T18:48:48.872Z,6.77
2018-06-01T18:54:43.916Z,6.47
2018-06-01T19:00:38.890Z,6.16
2018-06-01T19:06:33.863Z,6.37
2018-06-01T19:12:28.905Z,7.2
2018-06-01T19:18:23.856Z,6
2018-06-01T19:24:18.895Z,5.27
2018-06-01T19:30:13.906Z,5.48
2018-06-01T19:36:08.922Z,5.64
2018-06-01T19:42:03.867Z,6
2018-06-01T19:47:58.890Z,8.31
2018-06-01T19:53:53.955Z,6.22
2018-06-01T19:59:48.923Z,5.79
2018-06-01T20:05:43.942Z,6.1
2018-06-01T20:11:38.945Z,6.61
2018-06-01T20:17:33.914Z,7.5
2018-06-01T20:23:28.907Z,5.9
2018-06-01T20:29:23.916Z,5.72
2018-06-01T20:35:18.891Z,9.58
2018-06-01T20:41:13.972Z,6.45
2018-06-01T20:47:08.946Z,6.54
2018-06-01T20:53:03.925Z,5.43
2018-06-01T20:58:58.921Z,6.01
2018-06-01T21:04:54.008Z,5.81
2018-06-01T21:10:48.921Z,6.69
2018-06-01T21:16:43.949Z,6.59
2018-06-01T21:22:38.912Z,6.97
2018-06-01T21:28:33.969Z,6.26
2018-06-01T21:34:29.009Z,6.09
2018-06-01T21:40:23.991Z,6.44
2018-06-01T21:46:18.957Z,6.43
2018-06-01T21:52:13.968Z,5.56
2018-06-01T21:58:08.951Z,6.57
2018-06-01T22:04:03.953Z,6.12
2018-06-01T22:09:59.012Z,6.92
2018-06-01T22:15:53.974Z,7.03
2018-06-01T22:21:48.960Z,6.9
2018-06-01T22:27:44.047Z,6.6
2018-06-01T22:33:39.039Z,7.39
2018-06-01T22:39:34.020Z,6.71
2018-06-01T22:45:29.015Z,7.13
2018-06-01T22:51:23.990Z,10.58
2018-06-01T22:57:18.985Z,6.75
2018-06-01T23:03:14.021Z,7.63
2018-06-01T23:09:08.978Z,7.44
2018-06-01T23:15:04.072Z,6.49
2018-06-01T23:20:58.987Z,6.9
2018-06-01T23:26:54.001Z,7.12
2018-06-01T23:32:49.052Z,7.21
2018-06-01T23:38:44.083Z,8.45
2018-06-01T23:44:39.012Z,8.28
2018-06-01T23:50:34.000Z,7.27
2018-06-01T23:56:29.002Z,7.98
